Time;durP1;ratioP1;P1;durP2;ratioP2;P2;SDS_P1;SDS_P2;PMS_P1;PMS_P2;Temp;Humidity;BMP_temperature;BMP_pressure;BME280_temperature;BME280_humidity;BME280_pressure;Samples;Min_cycle;Max_cycle;Signal;HPM_P1;HPM_P2
2024/04/18 00:03:24;;;;;;;3.03;1.45;;;;;;;;;;10967949;26;20021;-76
2024/04/18 00:08:29;;;;;;;4.32;2.05;;;;;;;;;;10956301;26;20006;-74
2024/04/18 00:13:37;;;;;;;6.07;2.40;;;;;;;;;;11009053;26;20001;-75
2024/04/18 00:18:41;;;;;;;6.32;2.00;;;;;;;;;;11040558;26;20487;-76
2024/04/18 00:23:46;;;;;;;2.80;1.30;;;;;;;;;;11026878;26;20013;-76
2024/04/18 00:28:53;;;;;;;5.18;2.00;;;;;;;;;;11023923;26;20761;-76
2024/04/18 00:34:01;;;;;;;4.88;2.30;;;;;;;;;;10996167;26;20498;-75
2024/04/18 00:39:06;;;;;;;6.90;2.28;;;;;;;;;;11026275;26;20130;-74
2024/04/18 00:44:18;;;;;;;3.08;1.70;;;;;;;;;;11017385;26;20004;-74
2024/04/18 00:49:24;;;;;;;5.75;2.35;;;;;;;;;;11039069;26;20002;-74
2024/04/18 00:54:28;;;;;;;1.88;0.90;;;;;;;;;;11021514;26;20031;-75
2024/04/18 00:59:38;;;;;;;3.83;2.13;;;;;;;;;;11032482;26;20020;-74
2024/04/18 01:04:44;;;;;;;6.95;2.53;;;;;;;;;;11033843;26;20000;-74
2024/04/18 01:09:49;;;;;;;6.68;2.80;;;;;;;;;;11037215;26;20465;-74
2024/04/18 01:14:57;;;;;;;6.22;2.90;;;;;;;;;;11030151;26;20016;-75
2024/04/18 01:20:02;;;;;;;6.95;2.60;;;;;;;;;;11031273;26;20002;-75
2024/04/18 01:25:07;;;;;;;5.07;2.30;;;;;;;;;;11031615;26;20128;-74
2024/04/18 01:30:14;;;;;;;4.85;2.30;;;;;;;;;;11020610;26;20008;-75
2024/04/18 01:35:19;;;;;;;5.65;2.33;;;;;;;;;;11030681;26;20016;-74
2024/04/18 01:40:24;;;;;;;5.93;2.60;;;;;;;;;;11024675;26;20066;-76
2024/04/18 01:45:34;;;;;;;8.35;2.60;;;;;;;;;;11035317;26;20021;-75
2024/04/18 01:50:40;;;;;;;5.50;2.00;;;;;;;;;;10966507;26;20455;-75
2024/04/18 01:55:44;;;;;;;5.70;2.35;;;;;;;;;;11022936;26;21633;-75
2024/04/18 02:00:51;;;;;;;5.38;2.17;;;;;;;;;;11030030;26;20111;-74
2024/04/18 02:05:56;;;;;;;3.50;1.75;;;;;;;;;;11037477;26;20012;-72
2024/04/18 02:11:01;;;;;;;5.95;2.60;;;;;;;;;;11015029;26;20005;-75
2024/04/18 02:16:09;;;;;;;5.75;2.72;;;;;;;;;;10950222;26;20013;-74
2024/04/18 02:21:13;;;;;;;6.43;2.40;;;;;;;;;;10928432;26;20008;-74
2024/04/18 02:26:18;;;;;;;4.80;2.05;;;;;;;;;;10928782;26;20014;-74
2024/04/18 02:31:26;;;;;;;7.10;3.55;;;;;;;;;;10952515;26;20006;-74
2024/04/18 02:36:31;;;;;;;5.82;3.05;;;;;;;;;;10961005;26;20021;-74
2024/04/18 02:41:36;;;;;;;4.07;2.53;;;;;;;;;;10963430;26;19998;-74
2024/04/18 02:46:44;;;;;;;9.90;3.58;;;;;;;;;;10955916;26;19998;-74
2024/04/18 02:51:49;;;;;;;6.70;3.30;;;;;;;;;;10971614;26;20009;-73
2024/04/18 02:56:53;;;;;;;7.25;3.35;;;;;;;;;;10957967;26;20064;-74
2024/04/18 03:02:03;;;;;;;6.38;2.85;;;;;;;;;;10952433;26;20082;-75
2024/04/18 03:07:08;;;;;;;7.60;3.55;;;;;;;;;;10966893;26;20484;-74
2024/04/18 03:12:13;;;;;;;7.55;3.83;;;;;;;;;;10958411;26;20466;-74
2024/04/18 03:17:20;;;;;;;6.10;3.28;;;;;;;;;;10970125;26;19998;-75
2024/04/18 03:22:25;;;;;;;6.72;3.30;;;;;;;;;;10961704;26;20006;-74
2024/04/18 03:27:29;;;;;;;8.43;4.07;;;;;;;;;;10960478;26;20515;-75
2024/04/18 03:32:36;;;;;;;6.55;3.45;;;;;;;;;;10951519;26;20021;-74
2024/04/18 03:37:41;;;;;;;5.85;3.20;;;;;;;;;;10934268;26;20017;-74
2024/04/18 03:42:46;;;;;;;3.45;2.17;;;;;;;;;;10952346;26;20564;-73
2024/04/18 03:47:55;;;;;;;8.48;3.85;;;;;;;;;;10951134;26;20657;-74
2024/04/18 03:53:00;;;;;;;11.98;4.28;;;;;;;;;;10952525;26;20013;-75
2024/04/18 03:58:05;;;;;;;6.35;3.00;;;;;;;;;;10953655;26;20450;-75
2024/04/18 04:03:12;;;;;;;8.93;4.63;;;;;;;;;;10961877;26;20404;-75
2024/04/18 04:08:18;;;;;;;6.68;3.55;;;;;;;;;;10957071;26;20001;-74
2024/04/18 04:13:25;;;;;;;7.82;4.13;;;;;;;;;;10970956;26;20009;-75
2024/04/18 04:18:33;;;;;;;9.23;4.45;;;;;;;;;;10926948;26;20020;-74
2024/04/18 04:23:38;;;;;;;8.93;3.70;;;;;;;;;;10957721;26;20819;-75
2024/04/18 04:28:43;;;;;;;8.18;3.80;;;;;;;;;;10953952;26;20037;-75
2024/04/18 04:33:52;;;;;;;10.43;5.40;;;;;;;;;;10957924;26;20008;-75
2024/04/18 04:38:57;;;;;;;10.63;4.70;;;;;;;;;;10955504;26;20446;-75
2024/04/18 04:44:04;;;;;;;12.50;4.82;;;;;;;;;;10958256;26;20006;-75
2024/04/18 04:49:12;;;;;;;12.20;4.95;;;;;;;;;;10955665;26;20078;-74
2024/04/18 04:54:17;;;;;;;9.48;4.65;;;;;;;;;;10952185;26;20030;-74
2024/04/18 04:59:21;;;;;;;10.52;4.90;;;;;;;;;;10950575;26;20454;-74
2024/04/18 05:04:29;;;;;;;10.38;4.35;;;;;;;;;;10957138;26;19997;-74
2024/04/18 05:09:34;;;;;;;9.07;4.50;;;;;;;;;;10926423;26;20051;-73
2024/04/18 05:14:39;;;;;;;8.70;4.55;;;;;;;;;;10949005;26;20051;-74
2024/04/18 05:19:46;;;;;;;8.57;4.72;;;;;;;;;;10960482;26;20014;-74
2024/04/18 05:24:50;;;;;;;12.43;4.78;;;;;;;;;;10959742;26;20005;-74
2024/04/18 05:35:18;;;;;;;11.05;4.82;;;;;;;;;;10956804;26;20013;-74
2024/04/18 05:40:23;;;;;;;8.88;4.45;;;;;;;;;;10974781;26;20037;-74
2024/04/18 05:45:27;;;;;;;10.98;4.75;;;;;;;;;;10960144;26;20422;-75
2024/04/18 05:50:34;;;;;;;10.45;4.75;;;;;;;;;;10957517;26;20552;-74
2024/04/18 05:55:43;;;;;;;11.20;4.78;;;;;;;;;;10956550;26;20090;-75
2024/04/18 06:00:47;;;;;;;9.00;4.40;;;;;;;;;;10939789;26;21619;-73
2024/04/18 06:05:56;;;;;;;8.05;3.70;;;;;;;;;;10949386;26;20260;-73
2024/04/18 06:11:00;;;;;;;7.28;3.28;;;;;;;;;;10948525;26;20002;-73
2024/04/18 06:16:05;;;;;;;6.00;3.17;;;;;;;;;;10956268;26;20084;-73
2024/04/18 06:21:13;;;;;;;3.75;1.58;;;;;;;;;;10940702;26;20012;-74
2024/04/18 06:26:17;;;;;;;5.60;2.67;;;;;;;;;;10941972;26;20001;-75
2024/04/18 06:31:22;;;;;;;5.93;2.70;;;;;;;;;;10940611;26;20021;-73
2024/04/18 06:36:29;;;;;;;6.13;3.10;;;;;;;;;;10939336;26;20053;-74
2024/04/18 06:41:34;;;;;;;5.18;2.75;;;;;;;;;;10933289;26;20018;-74
2024/04/18 06:46:39;;;;;;;5.57;2.70;;;;;;;;;;10924740;26;20132;-74
2024/04/18 06:52:04;;;;;;;3.90;2.13;;;;;;;;;;10928073;26;20021;-74
2024/04/18 06:57:08;;;;;;;3.95;2.70;;;;;;;;;;10933622;26;20016;-73
2024/04/18 07:02:14;;;;;;;7.55;3.40;;;;;;;;;;10929545;26;20018;-74
2024/04/18 07:07:21;;;;;;;5.40;2.90;;;;;;;;;;10934443;26;20016;-73
2024/04/18 07:12:27;;;;;;;2.40;1.45;;;;;;;;;;10941652;26;20004;-74
2024/04/18 07:17:32;;;;;;;6.05;3.05;;;;;;;;;;11009200;26;20000;-73
2024/04/18 07:22:42;;;;;;;6.00;3.22;;;;;;;;;;11006514;26;20140;-73
2024/04/18 07:28:01;;;;;;;6.95;3.38;;;;;;;;;;11004826;26;20048;-75
2024/04/18 07:33:06;;;;;;;5.00;2.95;;;;;;;;;;11012446;26;20465;-74
2024/04/18 07:38:13;;;;;;;5.07;2.95;;;;;;;;;;11008549;26;20450;-73
2024/04/18 07:43:17;;;;;;;6.07;3.35;;;;;;;;;;11005642;26;20032;-73
2024/04/18 07:48:22;;;;;;;8.98;3.65;;;;;;;;;;11010866;26;20586;-74
2024/04/18 07:53:29;;;;;;;8.50;2.88;;;;;;;;;;11009360;26;19996;-75
2024/04/18 07:58:33;;;;;;;7.45;4.00;;;;;;;;;;11006920;26;20020;-74
2024/04/18 08:03:39;;;;;;;6.50;3.25;;;;;;;;;;11010101;26;20254;-73
2024/04/18 08:09:02;;;;;;;6.47;3.10;;;;;;;;;;11018358;26;20016;-75
2024/04/18 08:14:12;;;;;;;8.88;4.10;;;;;;;;;;11014601;26;20020;-74
2024/04/18 08:19:22;;;;;;;3.95;1.83;;;;;;;;;;10984010;26;20001;-75
2024/04/18 08:24:33;;;;;;;4.95;2.95;;;;;;;;;;11011961;26;20119;-74
2024/04/18 08:29:38;;;;;;;9.00;4.30;;;;;;;;;;11014623;26;20017;-75
2024/04/18 08:34:42;;;;;;;5.70;2.50;;;;;;;;;;11011628;26;20422;-74
2024/04/18 08:39:51;;;;;;;7.22;4.05;;;;;;;;;;11013436;26;20009;-75
2024/04/18 08:44:57;;;;;;;5.85;3.53;;;;;;;;;;11011673;26;20027;-76
2024/04/18 08:50:04;;;;;;;6.43;3.38;;;;;;;;;;11010716;26;20024;-75
2024/04/18 08:55:11;;;;;;;6.03;3.72;;;;;;;;;;11012024;26;20000;-75
2024/04/18 09:00:15;;;;;;;5.50;3.47;;;;;;;;;;11018703;26;20324;-75
2024/04/18 09:05:21;;;;;;;5.90;3.67;;;;;;;;;;10987060;26;20001;-75
2024/04/18 09:10:31;;;;;;;6.28;3.40;;;;;;;;;;11009093;26;20009;-75
2024/04/18 09:15:37;;;;;;;6.03;3.67;;;;;;;;;;10981520;26;20465;-75
2024/04/18 09:20:43;;;;;;;5.07;3.40;;;;;;;;;;11011036;26;20014;-76
2024/04/18 09:25:54;;;;;;;5.18;3.20;;;;;;;;;;11015466;26;20017;-75
2024/04/18 09:31:00;;;;;;;5.15;3.10;;;;;;;;;;11012249;26;20196;-75
2024/04/18 09:36:07;;;;;;;6.82;3.65;;;;;;;;;;11015260;26;20009;-76
2024/04/18 09:41:17;;;;;;;5.22;3.33;;;;;;;;;;11013790;26;20119;-75
2024/04/18 09:46:23;;;;;;;5.90;2.88;;;;;;;;;;11013812;26;20450;-74
2024/04/18 09:51:29;;;;;;;3.83;2.60;;;;;;;;;;11009333;26;20009;-73
2024/04/18 09:56:38;;;;;;;4.10;2.80;;;;;;;;;;11008429;26;20017;-75
2024/04/18 10:01:44;;;;;;;4.72;2.90;;;;;;;;;;11020373;26;20005;-76
2024/04/18 10:06:51;;;;;;;10.02;3.13;;;;;;;;;;11012426;26;20045;-75
2024/04/18 10:11:58;;;;;;;6.03;3.20;;;;;;;;;;11000121;26;20437;-75
2024/04/18 10:17:04;;;;;;;6.45;2.90;;;;;;;;;;10983816;26;20029;-75
2024/04/18 10:22:11;;;;;;;6.75;3.00;;;;;;;;;;11018384;26;20019;-75
2024/04/18 10:27:43;;;;;;;5.50;2.95;;;;;;;;;;11007935;26;20004;-75
2024/04/18 10:32:52;;;;;;;5.03;2.85;;;;;;;;;;11014865;26;20099;-75
2024/04/18 10:37:57;;;;;;;5.10;2.88;;;;;;;;;;11004657;26;20006;-75
2024/04/18 10:43:17;;;;;;;6.13;3.20;;;;;;;;;;11005610;26;20029;-76
2024/04/18 10:48:24;;;;;;;7.25;3.40;;;;;;;;;;11011767;26;20085;-75
2024/04/18 10:53:29;;;;;;;5.13;2.95;;;;;;;;;;11016577;26;20517;-76
2024/04/18 10:58:36;;;;;;;6.93;3.70;;;;;;;;;;11013714;26;20456;-75
2024/04/18 11:03:41;;;;;;;4.78;3.00;;;;;;;;;;11009822;26;20645;-75
2024/04/18 11:08:51;;;;;;;4.18;2.50;;;;;;;;;;11016363;26;20028;-76
2024/04/18 11:13:59;;;;;;;3.20;2.20;;;;;;;;;;11008891;26;20005;-75
2024/04/18 11:19:04;;;;;;;4.30;2.83;;;;;;;;;;11020177;26;20076;-74
2024/04/18 11:24:11;;;;;;;3.03;2.50;;;;;;;;;;11019250;26;20402;-75
2024/04/18 11:29:18;;;;;;;3.47;2.60;;;;;;;;;;11011841;26;20491;-75
2024/04/18 11:34:23;;;;;;;3.78;2.78;;;;;;;;;;11018467;26;20020;-75
2024/04/18 11:39:29;;;;;;;3.35;2.67;;;;;;;;;;11020513;26;20040;-75
2024/04/18 11:44:37;;;;;;;4.82;3.20;;;;;;;;;;11004962;26;20454;-75
2024/04/18 11:49:42;;;;;;;4.50;3.25;;;;;;;;;;11012352;26;20024;-75
2024/04/18 11:54:47;;;;;;;3.70;2.85;;;;;;;;;;11003506;26;20082;-75
2024/04/18 11:59:54;;;;;;;3.75;3.20;;;;;;;;;;11010686;26;20485;-76
2024/04/18 12:04:59;;;;;;;3.40;3.10;;;;;;;;;;11018953;26;20324;-77
2024/04/18 12:10:04;;;;;;;2.80;2.55;;;;;;;;;;11018607;26;20017;-75
2024/04/18 12:15:11;;;;;;;2.95;2.45;;;;;;;;;;11019061;26;20000;-76
2024/04/18 12:20:18;;;;;;;3.88;2.30;;;;;;;;;;11017088;26;20000;-76
2024/04/18 12:25:24;;;;;;;2.05;1.85;;;;;;;;;;11017246;26;20041;-75
2024/04/18 12:30:31;;;;;;;4.65;3.17;;;;;;;;;;11011791;26;20013;-76
2024/04/18 12:35:36;;;;;;;4.80;2.83;;;;;;;;;;11024688;26;20023;-77
2024/04/18 12:40:41;;;;;;;3.65;2.67;;;;;;;;;;11009705;26;20684;-75
2024/04/18 12:45:53;;;;;;;3.67;2.53;;;;;;;;;;11014690;26;20535;-76
2024/04/18 12:51:14;;;;;;;2.60;1.58;;;;;;;;;;11017381;26;20013;-77
2024/04/18 12:56:21;;;;;;;2.63;1.48;;;;;;;;;;11019523;26;20034;-76
2024/04/18 13:01:30;;;;;;;2.85;1.52;;;;;;;;;;11022372;26;20000;-77
2024/04/18 13:06:42;;;;;;;1.52;1.10;;;;;;;;;;10985719;26;20697;-77
2024/04/18 13:11:48;;;;;;;3.97;1.30;;;;;;;;;;10978554;26;20005;-77
2024/04/18 13:16:55;;;;;;;1.83;1.20;;;;;;;;;;11016041;26;20009;-77
2024/04/18 13:22:02;;;;;;;2.17;1.63;;;;;;;;;;11015480;26;20005;-76
2024/04/18 13:27:08;;;;;;;1.80;1.25;;;;;;;;;;10980470;26;20449;-76
2024/04/18 13:32:20;;;;;;;2.00;1.50;;;;;;;;;;10987392;26;20010;-77
2024/04/18 13:37:27;;;;;;;2.67;1.60;;;;;;;;;;10987990;26;20544;-76
2024/04/18 13:42:34;;;;;;;2.17;1.73;;;;;;;;;;11011265;26;20009;-76
2024/04/18 13:47:46;;;;;;;1.88;1.33;;;;;;;;;;10982558;26;20029;-76
2024/04/18 13:52:51;;;;;;;2.55;2.10;;;;;;;;;;11008608;26;20023;-77
2024/04/18 13:57:56;;;;;;;3.03;1.90;;;;;;;;;;10994447;26;20016;-75
2024/04/18 14:03:08;;;;;;;3.08;2.20;;;;;;;;;;11019065;26;20009;-76
2024/04/18 14:08:14;;;;;;;4.18;2.60;;;;;;;;;;11006335;26;20023;-76
2024/04/18 14:13:22;;;;;;;3.30;2.47;;;;;;;;;;11004319;26;20699;-76
2024/04/18 14:23:54;;;;;;;4.20;2.67;;;;;;;;;;10984012;26;20025;-77
2024/04/18 14:28:59;;;;;;;4.40;2.58;;;;;;;;;;11003053;26;20521;-77
2024/04/18 14:34:09;;;;;;;5.57;3.03;;;;;;;;;;11008711;26;20001;-77
2024/04/18 14:39:15;;;;;;;2.28;1.58;;;;;;;;;;11011927;26;20000;-77
2024/04/18 14:44:26;;;;;;;2.17;1.10;;;;;;;;;;10961205;26;20251;-76
2024/04/18 14:49:35;;;;;;;3.30;1.60;;;;;;;;;;11025691;26;20436;-78
2024/04/18 14:54:40;;;;;;;3.20;1.73;;;;;;;;;;11023566;26;20033;-75
2024/04/18 14:59:44;;;;;;;5.18;1.45;;;;;;;;;;11008760;26;20016;-77
2024/04/18 15:04:52;;;;;;;2.67;1.55;;;;;;;;;;11018239;26;20070;-77
2024/04/18 15:09:58;;;;;;;2.55;1.20;;;;;;;;;;11014272;26;20012;-76
2024/04/18 15:15:07;;;;;;;1.98;1.42;;;;;;;;;;11007501;26;20196;-76
2024/04/18 15:20:15;;;;;;;2.58;1.45;;;;;;;;;;11025282;26;20023;-75
2024/04/18 15:25:20;;;;;;;2.92;1.70;;;;;;;;;;11027928;26;20040;-75
2024/04/18 15:30:25;;;;;;;3.22;1.70;;;;;;;;;;11018246;26;20005;-77
2024/04/18 15:35:34;;;;;;;3.63;1.70;;;;;;;;;;11014920;26;20686;-77
2024/04/18 15:40:39;;;;;;;3.38;1.80;;;;;;;;;;11003680;26;20688;-78
2024/04/18 15:45:45;;;;;;;3.95;2.10;;;;;;;;;;10984476;26;20016;-78
2024/04/18 15:50:52;;;;;;;4.47;2.38;;;;;;;;;;11014827;26;20032;-77
2024/04/18 15:55:59;;;;;;;4.75;1.75;;;;;;;;;;10988541;26;20009;-77
2024/04/18 16:01:04;;;;;;;3.08;0.98;;;;;;;;;;11008431;26;20333;-77
2024/04/18 16:06:13;;;;;;;3.33;2.28;;;;;;;;;;11013680;26;20115;-76
2024/04/18 16:11:18;;;;;;;2.70;1.40;;;;;;;;;;11006778;26;20076;-77
2024/04/18 16:16:23;;;;;;;3.95;1.42;;;;;;;;;;11003457;26;20044;-76
2024/04/18 16:21:31;;;;;;;2.00;1.35;;;;;;;;;;10975908;26;20024;-77
2024/04/18 16:26:36;;;;;;;2.25;1.20;;;;;;;;;;11012277;26;20509;-76
2024/04/18 16:31:41;;;;;;;2.22;1.05;;;;;;;;;;11017242;26;20009;-76
2024/04/18 16:36:48;;;;;;;1.95;1.27;;;;;;;;;;11001371;26;20008;-77
2024/04/18 16:42:13;;;;;;;3.40;1.27;;;;;;;;;;11008522;26;20123;-76
2024/04/18 16:47:17;;;;;;;3.65;1.77;;;;;;;;;;11017111;26;20497;-76
2024/04/18 16:52:25;;;;;;;4.13;2.10;;;;;;;;;;11007896;26;20488;-75
2024/04/18 16:57:30;;;;;;;5.28;2.35;;;;;;;;;;11019844;26;20001;-76
2024/04/18 17:02:37;;;;;;;3.80;1.80;;;;;;;;;;10993228;26;20028;-75
2024/04/18 17:07:45;;;;;;;4.35;1.90;;;;;;;;;;11026734;26;20086;-76
2024/04/18 17:12:53;;;;;;;3.35;1.88;;;;;;;;;;11035457;26;20005;-76
2024/04/18 17:18:00;;;;;;;2.38;1.67;;;;;;;;;;11041558;26;20484;-77
2024/04/18 17:23:08;;;;;;;3.38;1.73;;;;;;;;;;11038238;26;20001;-76
2024/04/18 17:28:13;;;;;;;3.03;1.60;;;;;;;;;;11032001;26;20001;-77
2024/04/18 17:33:19;;;;;;;1.70;0.98;;;;;;;;;;11033368;26;20079;-77
2024/04/18 17:38:27;;;;;;;4.55;1.63;;;;;;;;;;11033933;26;20044;-77
2024/04/18 17:43:32;;;;;;;4.82;2.20;;;;;;;;;;11033723;26;20009;-76
2024/04/18 17:48:38;;;;;;;5.10;1.48;;;;;;;;;;10991194;26;20067;-75
2024/04/18 17:53:45;;;;;;;8.68;4.00;;;;;;;;;;11020728;26;20009;-75
2024/04/18 17:58:49;;;;;;;6.20;2.40;;;;;;;;;;11016570;26;20048;-76
2024/04/18 18:03:54;;;;;;;6.63;2.85;;;;;;;;;;11001145;26;20462;-75
2024/04/18 18:09:01;;;;;;;6.30;2.67;;;;;;;;;;10992239;26;20014;-75
2024/04/18 18:14:05;;;;;;;5.78;2.58;;;;;;;;;;11030262;26;20087;-76
2024/04/18 18:19:10;;;;;;;8.82;3.55;;;;;;;;;;11031363;26;20027;-74
2024/04/18 18:24:18;;;;;;;5.90;2.28;;;;;;;;;;11051730;26;20009;-75
2024/04/18 18:29:22;;;;;;;6.50;2.78;;;;;;;;;;11019004;26;20008;-75
2024/04/18 18:34:27;;;;;;;10.52;4.55;;;;;;;;;;11018822;26;20033;-74
2024/04/18 18:39:43;;;;;;;2.58;1.52;;;;;;;;;;11022155;26;20012;-76
2024/04/18 18:44:48;;;;;;;5.90;2.90;;;;;;;;;;11013615;26;20411;-76
2024/04/18 18:49:53;;;;;;;5.93;2.70;;;;;;;;;;10984112;26;20001;-76
2024/04/18 18:55:00;;;;;;;5.78;2.58;;;;;;;;;;11033625;26;20005;-76
2024/04/18 19:00:04;;;;;;;7.38;3.20;;;;;;;;;;11031813;26;20314;-75
2024/04/18 19:05:09;;;;;;;4.22;2.03;;;;;;;;;;11027058;26;20428;-74
2024/04/18 19:10:23;;;;;;;6.60;3.40;;;;;;;;;;11002320;26;20489;-75
2024/04/18 19:15:29;;;;;;;6.10;3.08;;;;;;;;;;10952908;26;20024;-75
2024/04/18 19:20:35;;;;;;;2.28;1.27;;;;;;;;;;10983092;26;20531;-75
2024/04/18 19:25:45;;;;;;;6.00;2.42;;;;;;;;;;10965479;26;20029;-74
2024/04/18 19:30:58;;;;;;;4.35;1.95;;;;;;;;;;10936710;26;20003;-73
2024/04/18 19:36:03;;;;;;;6.00;2.92;;;;;;;;;;10954789;26;20018;-73
2024/04/18 19:41:11;;;;;;;4.97;2.40;;;;;;;;;;10953632;26;20094;-77
2024/04/18 19:46:16;;;;;;;3.25;1.58;;;;;;;;;;10946836;26;20006;-77
2024/04/18 19:51:26;;;;;;;3.38;1.80;;;;;;;;;;10941518;26;20640;-77
2024/04/18 19:56:33;;;;;;;6.82;3.13;;;;;;;;;;10960975;26;20021;-76
2024/04/18 20:01:39;;;;;;;6.45;2.78;;;;;;;;;;10966988;26;20346;-76
2024/04/18 20:06:45;;;;;;;6.07;2.97;;;;;;;;;;11002411;26;20001;-77
2024/04/18 20:11:52;;;;;;;4.40;1.73;;;;;;;;;;10982411;26;20013;-77
2024/04/18 20:16:59;;;;;;;5.88;2.83;;;;;;;;;;10979896;26;20012;-77
2024/04/18 20:22:05;;;;;;;4.53;2.58;;;;;;;;;;10975484;26;20085;-76
2024/04/18 20:27:14;;;;;;;5.95;2.78;;;;;;;;;;10968696;26;20058;-76
2024/04/18 20:32:20;;;;;;;2.65;2.00;;;;;;;;;;10962274;26;20362;-77
2024/04/18 20:37:26;;;;;;;4.22;2.03;;;;;;;;;;10931384;26;20018;-77
2024/04/18 20:42:34;;;;;;;2.58;1.40;;;;;;;;;;10967535;26;20001;-76
2024/04/18 20:47:42;;;;;;;4.63;1.92;;;;;;;;;;10969411;26;20010;-77
2024/04/18 20:52:53;;;;;;;3.90;1.95;;;;;;;;;;10976463;26;20013;-75
2024/04/18 20:58:02;;;;;;;3.45;2.17;;;;;;;;;;10962521;26;20049;-77
2024/04/18 21:03:08;;;;;;;5.20;2.40;;;;;;;;;;10966413;26;20009;-76
2024/04/18 21:08:14;;;;;;;7.13;3.35;;;;;;;;;;10933727;26;20353;-77
2024/04/18 21:13:38;;;;;;;9.90;2.88;;;;;;;;;;10939128;26;20015;-76
2024/04/18 21:18:50;;;;;;;5.38;2.58;;;;;;;;;;10969418;26;20006;-78
2024/04/18 21:23:59;;;;;;;5.05;2.42;;;;;;;;;;10955879;26;20017;-77
2024/04/18 21:29:05;;;;;;;5.97;2.22;;;;;;;;;;10962753;26;20558;-77
2024/04/18 21:34:21;;;;;;;5.65;2.72;;;;;;;;;;10964715;26;20746;-78
2024/04/18 21:39:37;;;;;;;5.47;2.83;;;;;;;;;;10957348;26;20055;-77
2024/04/18 21:44:46;;;;;;;2.08;1.00;;;;;;;;;;10931044;26;19998;-75
2024/04/18 21:49:58;;;;;;;4.40;2.65;;;;;;;;;;10963357;26;20005;-77
2024/04/18 21:55:05;;;;;;;3.83;2.50;;;;;;;;;;10967244;26;20010;-76
2024/04/18 22:00:12;;;;;;;5.85;2.25;;;;;;;;;;10950664;26;20037;-75
2024/04/18 22:05:20;;;;;;;7.07;2.95;;;;;;;;;;10961695;26;20034;-74
2024/04/18 22:10:29;;;;;;;4.78;2.28;;;;;;;;;;10956404;26;20032;-73
2024/04/18 22:15:36;;;;;;;2.03;1.23;;;;;;;;;;10962336;26;20016;-75
2024/04/18 22:20:47;;;;;;;3.22;1.67;;;;;;;;;;10947673;26;20422;-76
2024/04/18 22:25:52;;;;;;;5.65;2.10;;;;;;;;;;10967975;26;20631;-77
2024/04/18 22:30:59;;;;;;;4.60;2.08;;;;;;;;;;10959763;26;20016;-76
2024/04/18 22:36:07;;;;;;;2.63;1.52;;;;;;;;;;10955821;26;20465;-78
2024/04/18 22:41:11;;;;;;;5.97;2.83;;;;;;;;;;10956629;26;20139;-74
2024/04/18 22:46:16;;;;;;;4.10;1.92;;;;;;;;;;10958373;26;20009;-76
2024/04/18 22:51:24;;;;;;;5.68;2.40;;;;;;;;;;10930063;26;20137;-76
2024/04/18 22:56:29;;;;;;;4.07;1.92;;;;;;;;;;10965750;26;20007;-75
2024/04/18 23:01:34;;;;;;;3.38;1.83;;;;;;;;;;10966264;26;20001;-77
2024/04/18 23:06:42;;;;;;;2.97;1.13;;;;;;;;;;10960410;26;20021;-73
2024/04/18 23:11:46;;;;;;;1.20;1.02;;;;;;;;;;10961001;26;20057;-74
2024/04/18 23:16:51;;;;;;;2.50;1.50;;;;;;;;;;10937286;26;20065;-75
2024/04/18 23:21:59;;;;;;;4.45;2.05;;;;;;;;;;10932164;26;20057;-75
2024/04/18 23:27:04;;;;;;;3.95;2.28;;;;;;;;;;10933792;26;20025;-75
2024/04/18 23:32:08;;;;;;;3.05;1.25;;;;;;;;;;10943876;26;20069;-74
2024/04/18 23:37:15;;;;;;;2.25;1.25;;;;;;;;;;10938266;26;20018;-75
2024/04/18 23:42:21;;;;;;;4.07;2.10;;;;;;;;;;10940824;26;21244;-74
2024/04/18 23:47:25;;;;;;;4.47;2.25;;;;;;;;;;10939961;26;20095;-74
2024/04/18 23:52:33;;;;;;;4.07;1.95;;;;;;;;;;10936671;26;20057;-74
2024/04/18 23:57:38;;;;;;;2.63;1.40;;;;;;;;;;10934199;26;20006;-74
